createdAt,value
2016-08-24T00:00:25.441Z,82.19
2016-08-24T00:01:25.424Z,82.63
2016-08-24T00:02:25.427Z,82.53
2016-08-24T00:03:25.431Z,82.57
2016-08-24T00:04:25.433Z,83.06
2016-08-24T00:05:25.442Z,83.11
2016-08-24T00:06:25.441Z,83.49
2016-08-24T00:07:25.444Z,83.78
2016-08-24T00:08:25.444Z,83.87
2016-08-24T00:09:25.449Z,84.07
2016-08-24T00:10:25.450Z,83.87
2016-08-24T00:11:25.451Z,83.69
2016-08-24T00:12:25.449Z,84.26
2016-08-24T00:13:25.452Z,84.55
2016-08-24T00:14:25.454Z,83.87
2016-08-24T00:15:25.458Z,84.26
2016-08-24T00:16:25.459Z,84.07
2016-08-24T00:17:25.462Z,84.55
2016-08-24T00:18:25.472Z,84.36
2016-08-24T00:19:25.468Z,84.55
2016-08-24T00:20:25.481Z,84.17
2016-08-24T00:21:25.474Z,85.03
2016-08-24T00:22:25.471Z,84.26
2016-08-24T00:23:25.475Z,84.84
2016-08-24T00:24:25.477Z,84.94
2016-08-24T00:25:25.481Z,84.7
2016-08-24T00:26:25.481Z,84.51
2016-08-24T00:27:25.482Z,84.8
2016-08-24T00:28:25.488Z,84.51
2016-08-24T00:29:25.492Z,84.8
2016-08-24T00:30:25.499Z,85.18
2016-08-24T00:31:25.492Z,85.18
2016-08-24T00:32:25.493Z,85.28
2016-08-24T00:33:25.496Z,85.08
2016-08-24T00:34:25.499Z,85.75
2016-08-24T00:35:25.516Z,85.47
2016-08-24T00:36:25.501Z,85.66
2016-08-24T00:37:25.516Z,85.57
2016-08-24T00:38:26.219Z,85.85
2016-08-24T00:39:26.227Z,85.66
2016-08-24T00:40:25.518Z,85.57
2016-08-24T00:41:25.519Z,85.75
2016-08-24T00:42:25.521Z,85.66
2016-08-24T00:43:25.519Z,86.14
2016-08-24T00:44:25.521Z,86.24
2016-08-24T00:45:25.538Z,86.24
2016-08-24T00:46:25.524Z,86.14
2016-08-24T00:47:25.530Z,86.05
2016-08-24T00:48:25.528Z,86.05
2016-08-24T00:49:25.531Z,86.43
2016-08-24T00:50:25.536Z,86.33
2016-08-24T00:51:25.535Z,86.72
2016-08-24T00:52:25.535Z,86.62
2016-08-24T00:53:25.539Z,86.62
2016-08-24T00:54:25.541Z,86.81
2016-08-24T00:55:25.542Z,86.91
2016-08-24T00:56:25.545Z,87.1
2016-08-24T00:57:25.546Z,87.19
2016-08-24T00:58:25.550Z,87.19
2016-08-24T00:59:25.551Z,87.29
2016-08-24T01:00:25.561Z,87.49
2016-08-24T01:01:25.555Z,87.63
2016-08-24T01:02:25.556Z,87.15
2016-08-24T01:03:25.559Z,87.44
2016-08-24T01:04:25.570Z,87.25
2016-08-24T01:05:25.569Z,87.15
2016-08-24T01:06:25.563Z,87.15
2016-08-24T01:07:25.566Z,87.44
2016-08-24T01:08:25.568Z,87.35
2016-08-24T01:09:25.568Z,87.15
2016-08-24T01:10:25.577Z,87.82
2016-08-24T01:11:25.575Z,87.54
2016-08-24T01:12:25.576Z,87.73
2016-08-24T01:13:25.581Z,87.44
2016-08-24T01:14:25.587Z,87.73
2016-08-24T01:15:25.599Z,87.63
2016-08-24T01:16:25.592Z,87.63
2016-08-24T01:17:25.589Z,88.21
2016-08-24T01:18:25.590Z,87.63
2016-08-24T01:19:25.592Z,87.54
2016-08-24T01:20:25.602Z,88.21
2016-08-24T01:21:25.596Z,88.69
2016-08-24T01:22:25.596Z,88.31
2016-08-24T01:23:25.596Z,88.59
2016-08-24T01:24:25.599Z,88.49
2016-08-24T01:25:25.620Z,88.31
2016-08-24T01:26:25.621Z,88.4
2016-08-24T01:27:25.622Z,88.31
2016-08-24T01:28:25.622Z,88.21
2016-08-24T01:29:25.613Z,88.02
2016-08-24T01:30:25.636Z,88.79
2016-08-24T01:31:25.645Z,88.49
2016-08-24T01:32:25.626Z,88.59
2016-08-24T01:33:25.630Z,89.32
2016-08-24T01:34:25.622Z,89.26
2016-08-24T01:35:25.642Z,88.79
2016-08-24T01:36:25.625Z,88.93
2016-08-24T01:37:25.641Z,89.07
2016-08-24T01:38:25.628Z,89.17
2016-08-24T01:39:25.637Z,89.07
2016-08-24T01:40:25.640Z,89.26
2016-08-24T01:41:25.642Z,88.65
2016-08-24T01:42:25.642Z,88.98
2016-08-24T01:43:25.651Z,89.22
2016-08-24T01:44:25.644Z,88.84
2016-08-24T01:45:25.646Z,88.84
2016-08-24T01:46:25.642Z,89.03
2016-08-24T01:47:25.644Z,89.32
2016-08-24T01:48:25.654Z,88.74
2016-08-24T01:49:25.649Z,89.51
2016-08-24T01:50:25.655Z,88.98
2016-08-24T01:51:25.655Z,88.93
2016-08-24T01:52:25.653Z,89.03
2016-08-24T01:53:25.661Z,89.41
2016-08-24T01:54:25.659Z,89.12
2016-08-24T01:55:25.659Z,89.22
2016-08-24T01:56:25.660Z,89.22
2016-08-24T01:57:25.660Z,89.32
2016-08-24T01:58:25.660Z,90.18
2016-08-24T01:59:25.662Z,89.79
2016-08-24T02:00:25.719Z,89.89
2016-08-24T02:01:25.670Z,89.79
2016-08-24T02:02:25.668Z,89.89
2016-08-24T02:03:25.669Z,90.37
2016-08-24T02:04:25.672Z,89.79
2016-08-24T02:05:25.685Z,90.37
2016-08-24T02:06:25.682Z,90.56
2016-08-24T02:07:25.686Z,90.75
2016-08-24T02:08:25.684Z,90.75
2016-08-24T02:09:25.687Z,90.66
2016-08-24T02:10:25.689Z,91.14
2016-08-24T02:11:25.703Z,90.75
2016-08-24T02:12:25.687Z,90.66
2016-08-24T02:13:25.690Z,90.75
2016-08-24T02:14:25.703Z,90.66
2016-08-24T02:15:25.706Z,90.56
2016-08-24T02:16:25.692Z,90.75
2016-08-24T02:17:25.709Z,91.42
2016-08-24T02:18:25.706Z,91.42
2016-08-24T02:19:26.411Z,90.56
2016-08-24T02:20:25.723Z,91.52
2016-08-24T02:21:25.716Z,91.14
2016-08-24T02:22:25.708Z,91.14
2016-08-24T02:23:25.729Z,91.52
2016-08-24T02:24:25.708Z,91.52
2016-08-24T02:25:25.727Z,91.24
2016-08-24T02:26:25.723Z,91.14
2016-08-24T02:27:25.732Z,91.72
2016-08-24T02:28:25.728Z,91.05
2016-08-24T02:29:25.725Z,91.14
2016-08-24T02:30:25.725Z,91.05
2016-08-24T02:31:25.726Z,91.72
2016-08-24T02:32:25.732Z,91.81
2016-08-24T02:33:25.737Z,91.81
2016-08-24T02:34:25.728Z,91.72
2016-08-24T02:35:25.730Z,91.81
2016-08-24T02:36:25.731Z,92.29
2016-08-24T02:37:25.730Z,92.24
2016-08-24T02:38:25.733Z,92.1
2016-08-24T02:39:25.732Z,91.62
2016-08-24T02:40:26.444Z,92
2016-08-24T02:41:25.735Z,91.91
2016-08-24T02:42:25.738Z,91.67
2016-08-24T02:43:25.741Z,91.42
2016-08-24T02:44:25.740Z,92.34
2016-08-24T02:45:25.745Z,92.05
2016-08-24T02:46:26.450Z,92.15
2016-08-24T02:47:25.745Z,92.15
2016-08-24T02:48:25.748Z,92.15
2016-08-24T02:49:25.747Z,92.82
2016-08-24T02:50:25.758Z,92.63
2016-08-24T02:51:26.461Z,92.63
2016-08-24T02:52:25.754Z,92.34
2016-08-24T02:53:25.766Z,92.34
2016-08-24T02:54:25.765Z,92.54
2016-08-24T02:55:25.759Z,93.21
2016-08-24T02:56:25.767Z,93.3
2016-08-24T02:57:25.771Z,93.4
2016-08-24T02:58:25.767Z,93.4
2016-08-24T02:59:25.767Z,92.91
2016-08-24T03:00:25.835Z,93.01
2016-08-24T03:01:25.772Z,92.91
2016-08-24T03:02:25.770Z,93.01
2016-08-24T03:03:25.771Z,93.11
2016-08-24T03:04:25.768Z,93.01
2016-08-24T03:05:25.774Z,93.21
2016-08-24T03:06:25.771Z,93.68
2016-08-24T03:07:25.774Z,93.97
2016-08-24T03:08:25.778Z,93.68
2016-08-24T03:09:25.781Z,93.97
2016-08-24T03:10:25.778Z,93.59
2016-08-24T03:11:25.782Z,93.97
2016-08-24T03:12:25.784Z,94.17
2016-08-24T03:13:25.782Z,93.78
2016-08-24T03:14:25.799Z,94.07
2016-08-24T03:15:25.790Z,93.97
2016-08-24T03:16:25.787Z,93.78
2016-08-24T03:17:25.790Z,93.88
2016-08-24T03:18:25.791Z,94.07
2016-08-24T03:19:25.791Z,93.78
2016-08-24T03:20:25.797Z,93.97
2016-08-24T03:21:25.795Z,94.07
2016-08-24T03:22:25.798Z,93.88
2016-08-24T03:23:25.800Z,93.83
2016-08-24T03:24:25.801Z,93.59
2016-08-24T03:25:25.805Z,94.59
2016-08-24T03:26:25.802Z,94.59
2016-08-24T03:27:25.804Z,94.5
2016-08-24T03:28:25.803Z,94.31
2016-08-24T03:29:25.807Z,94.21
2016-08-24T03:30:25.809Z,94.89
2016-08-24T03:31:25.817Z,94.59
2016-08-24T03:32:25.810Z,94.59
2016-08-24T03:33:25.811Z,94.5
2016-08-24T03:34:25.826Z,94.79
2016-08-24T03:35:25.820Z,95.36
2016-08-24T03:36:25.819Z,95.26
2016-08-24T03:37:25.818Z,95.46
2016-08-24T03:38:25.820Z,94.79
2016-08-24T03:39:25.822Z,94.59
2016-08-24T03:40:25.830Z,94.59
2016-08-24T03:41:25.833Z,95.26
2016-08-24T03:42:25.831Z,95.07
2016-08-24T03:43:25.836Z,94.98
2016-08-24T03:44:25.835Z,95.26
2016-08-24T03:45:25.837Z,95.17
2016-08-24T03:46:25.835Z,95.07
2016-08-24T03:47:25.835Z,95.26
2016-08-24T03:48:25.838Z,95.17
2016-08-24T03:49:25.837Z,95.17
2016-08-24T03:50:25.834Z,95.17
2016-08-24T03:51:25.838Z,95.36
2016-08-24T03:52:25.859Z,95.36
2016-08-24T03:53:26.549Z,95.26
2016-08-24T03:54:25.841Z,95.46
2016-08-24T03:55:25.844Z,95.65
2016-08-24T03:56:25.842Z,95.65
2016-08-24T03:57:25.859Z,96.03
2016-08-24T03:58:25.854Z,96.03
2016-08-24T03:59:25.863Z,95.84
2016-08-24T04:00:25.857Z,95.65
2016-08-24T04:01:25.853Z,95.84
2016-08-24T04:02:25.864Z,96.03
2016-08-24T04:03:25.857Z,95.84
2016-08-24T04:04:25.862Z,96.89
2016-08-24T04:05:25.863Z,96.61
2016-08-24T04:06:25.856Z,96.89
2016-08-24T04:07:25.862Z,96.7
2016-08-24T04:08:25.860Z,96.42
2016-08-24T04:09:25.871Z,96.8
2016-08-24T04:10:25.865Z,96.61
2016-08-24T04:11:25.869Z,96.8
2016-08-24T04:12:25.867Z,96.89
2016-08-24T04:13:25.872Z,96.89
2016-08-24T04:14:25.867Z,96.89
2016-08-24T04:15:25.898Z,96.42
2016-08-24T04:16:25.870Z,96.89
2016-08-24T04:17:25.878Z,96.8
2016-08-24T04:18:25.873Z,96.99
2016-08-24T04:19:25.875Z,96.47
2016-08-24T04:20:25.878Z,96.61
2016-08-24T04:21:25.880Z,96.61
2016-08-24T04:22:25.892Z,96.89
2016-08-24T04:23:25.880Z,96.99
2016-08-24T04:24:25.882Z,96.89
2016-08-24T04:25:25.888Z,96.61
2016-08-24T04:26:25.892Z,96.89
2016-08-24T04:27:25.945Z,97.09
2016-08-24T04:28:25.891Z,96.84
2016-08-24T04:29:25.890Z,97.09
2016-08-24T04:30:25.893Z,96.89
2016-08-24T04:31:25.890Z,96.8
2016-08-24T04:32:25.895Z,96.89
2016-08-24T04:33:25.895Z,97.56
2016-08-24T04:34:25.895Z,97.66
2016-08-24T04:35:25.900Z,97.04
2016-08-24T04:36:25.909Z,97.76
2016-08-24T04:37:25.898Z,97.38
2016-08-24T04:38:25.902Z,97.56
2016-08-24T04:39:25.902Z,97.66
2016-08-24T04:40:25.908Z,96.99
2016-08-24T04:41:25.905Z,96.51
2016-08-24T04:42:25.905Z,96.99
2016-08-24T04:43:25.908Z,96.8
2016-08-24T04:44:25.910Z,96.7
2016-08-24T04:45:26.632Z,96.7
2016-08-24T04:46:25.928Z,96.42
2016-08-24T04:47:25.913Z,96.42
2016-08-24T04:48:25.933Z,96.51
2016-08-24T04:49:25.915Z,96.51
2016-08-24T04:50:25.923Z,96.61
2016-08-24T04:51:25.931Z,96.61
2016-08-24T04:52:25.933Z,96.61
2016-08-24T04:53:25.924Z,96.61
2016-08-24T04:54:26.626Z,96.61
2016-08-24T04:55:25.950Z,95.75
2016-08-24T04:56:25.938Z,96.13
2016-08-24T04:57:25.937Z,95.65
2016-08-24T04:58:25.927Z,96.22
2016-08-24T04:59:25.934Z,96.03
2016-08-24T05:00:25.980Z,96.61
2016-08-24T05:01:25.931Z,96.22
2016-08-24T05:02:25.945Z,95.7
2016-08-24T05:03:25.938Z,93.82
2016-08-24T05:04:25.936Z,91.33
2016-08-24T05:05:25.941Z,89.26
2016-08-24T05:06:25.939Z,86.91
2016-08-24T05:07:25.945Z,84.74
2016-08-24T05:08:25.942Z,81.81
2016-08-24T05:09:25.955Z,80.02
2016-08-24T05:10:25.954Z,79.38
2016-08-24T05:11:25.958Z,77.65
2016-08-24T05:12:25.956Z,76.34
2016-08-24T05:13:25.959Z,73.58
2016-08-24T05:14:25.963Z,73.14
2016-08-24T05:15:25.966Z,70.76
2016-08-24T05:16:25.979Z,70.09
2016-08-24T05:17:25.975Z,69.16
2016-08-24T05:18:25.973Z,68.43
2016-08-24T05:19:25.977Z,66.24
2016-08-24T05:20:25.985Z,64.63
2016-08-24T05:21:25.986Z,63.76
2016-08-24T05:22:25.989Z,63.02
2016-08-24T05:23:25.998Z,62.44
2016-08-24T05:24:26.012Z,61.76
2016-08-24T05:25:26.003Z,62.53
2016-08-24T05:26:26.008Z,63.28
2016-08-24T05:27:26.009Z,64.53
2016-08-24T05:28:26.025Z,66.05
2016-08-24T05:29:26.027Z,67.94
2016-08-24T05:30:26.027Z,69.51
2016-08-24T05:31:26.028Z,71.02
2016-08-24T05:32:26.741Z,72.08
2016-08-24T05:33:26.037Z,73.2
2016-08-24T05:34:26.039Z,74.41
2016-08-24T05:35:26.054Z,75.67
2016-08-24T05:36:26.046Z,76.5
2016-08-24T05:37:26.050Z,76.21
2016-08-24T05:38:26.054Z,76.21
2016-08-24T05:39:26.058Z,75.82
2016-08-24T05:40:26.062Z,74.03
2016-08-24T05:41:26.066Z,72.43
2016-08-24T05:42:26.066Z,70.64
2016-08-24T05:43:26.072Z,69.42
2016-08-24T05:44:26.074Z,68.19
2016-08-24T05:45:26.087Z,66.4
2016-08-24T05:46:26.085Z,65.37
2016-08-24T05:47:26.087Z,64.43
2016-08-24T05:48:26.098Z,63.37
2016-08-24T05:49:26.100Z,62.89
2016-08-24T05:50:26.103Z,62.34
2016-08-24T05:51:26.106Z,61.76
2016-08-24T05:52:26.118Z,61.02
2016-08-24T05:53:26.117Z,60.92
2016-08-24T05:54:26.121Z,58.44
2016-08-24T05:55:26.136Z,57.5
2016-08-24T05:56:26.139Z,55.1
2016-08-24T05:57:26.146Z,54.09
2016-08-24T05:58:26.143Z,53.24
2016-08-24T05:59:26.151Z,52.28
2016-08-24T06:00:26.208Z,51.62
2016-08-24T06:01:26.161Z,51.81
2016-08-24T06:02:26.166Z,52.88
2016-08-24T06:03:26.173Z,53.63
2016-08-24T06:04:26.175Z,55.42
2016-08-24T06:05:26.184Z,57.33
2016-08-24T06:06:26.195Z,59.5
2016-08-24T06:07:26.203Z,61.98
2016-08-24T06:08:26.202Z,64.24
2016-08-24T06:09:26.205Z,66.05
2016-08-24T06:10:26.217Z,67.91
2016-08-24T06:11:26.215Z,69.35
2016-08-24T06:12:26.228Z,70.48
2016-08-24T06:13:26.227Z,71.89
2016-08-24T06:14:26.229Z,73.05
2016-08-24T06:15:26.236Z,73.88
2016-08-24T06:16:26.239Z,74.26
2016-08-24T06:17:26.243Z,74.41
2016-08-24T06:18:26.247Z,75.09
2016-08-24T06:19:26.260Z,75.28
2016-08-24T06:20:26.256Z,74.8
2016-08-24T06:21:26.259Z,74.51
2016-08-24T06:22:26.263Z,73.01
2016-08-24T06:23:26.267Z,71.31
2016-08-24T06:24:26.994Z,69.8
2016-08-24T06:25:26.285Z,67.91
2016-08-24T06:26:26.284Z,65.95
2016-08-24T06:27:26.291Z,63.37
2016-08-24T06:28:26.299Z,61.08
2016-08-24T06:29:26.294Z,59.5
2016-08-24T06:30:26.299Z,57.88
2016-08-24T06:31:26.300Z,56.75
2016-08-24T06:32:26.315Z,55.71
2016-08-24T06:33:26.316Z,55.32
2016-08-24T06:34:26.317Z,54.38
2016-08-24T06:35:26.323Z,54.19
2016-08-24T06:36:26.327Z,53.83
2016-08-24T06:37:26.334Z,52.4
2016-08-24T06:38:26.341Z,51.06
2016-08-24T06:39:26.347Z,50.87
2016-08-24T06:40:26.356Z,50.51
2016-08-24T06:41:26.361Z,50.96
2016-08-24T06:42:26.362Z,50.68
2016-08-24T06:43:26.367Z,50.29
2016-08-24T06:44:26.375Z,49.73
2016-08-24T06:45:26.384Z,49.27
2016-08-24T06:46:26.388Z,47.71
2016-08-24T06:47:26.393Z,47.44
2016-08-24T06:48:26.406Z,47.25
2016-08-24T06:49:26.412Z,46.86
2016-08-24T06:50:26.415Z,46.59
2016-08-24T06:51:26.425Z,45.25
2016-08-24T06:52:26.430Z,45.15
2016-08-24T06:53:26.438Z,44.01
2016-08-24T06:54:26.447Z,43.91
2016-08-24T06:55:26.453Z,43.91
2016-08-24T06:56:26.461Z,42.96
2016-08-24T06:57:26.470Z,42.1
2016-08-24T06:58:26.478Z,42.59
2016-08-24T06:59:26.487Z,42.76
2016-08-24T07:00:26.492Z,42.66
2016-08-24T07:01:26.499Z,42.98
2016-08-24T07:02:26.509Z,42.57
2016-08-24T07:03:26.519Z,42.57
2016-08-24T07:04:26.535Z,42.38
2016-08-24T07:05:26.530Z,42.08
2016-08-24T07:06:26.539Z,41.81
2016-08-24T07:07:26.548Z,41.35
2016-08-24T07:08:26.554Z,40.29
2016-08-24T07:09:26.573Z,39.7
2016-08-24T07:10:26.574Z,40.29
2016-08-24T07:11:26.582Z,40.09
2016-08-24T07:12:26.599Z,39.7
2016-08-24T07:13:26.596Z,40
2016-08-24T07:14:26.605Z,40.39
2016-08-24T07:15:26.610Z,40.29
2016-08-24T07:16:26.621Z,40.27
2016-08-24T07:17:26.630Z,40.19
2016-08-24T07:18:26.649Z,39.9
2016-08-24T07:19:26.652Z,39.33
2016-08-24T07:20:26.663Z,39.14
2016-08-24T07:21:26.666Z,38.65
2016-08-24T07:22:26.672Z,39.33
2016-08-24T07:23:26.681Z,38.67
2016-08-24T07:24:26.687Z,38.77
2016-08-24T07:25:27.417Z,39.33
2016-08-24T07:26:26.711Z,39.43
2016-08-24T07:27:26.730Z,40.21
2016-08-24T07:28:26.727Z,42.22
2016-08-24T07:29:26.736Z,43.91
2016-08-24T07:30:26.743Z,45.72
2016-08-24T07:31:26.754Z,47.03
2016-08-24T07:32:26.759Z,49.44
2016-08-24T07:33:26.763Z,50.65
2016-08-24T07:34:26.774Z,51.98
2016-08-24T07:35:26.778Z,52.93
2016-08-24T07:36:26.785Z,54.45
2016-08-24T07:37:26.793Z,55.2
2016-08-24T07:38:26.807Z,55.3
2016-08-24T07:39:26.813Z,53.75
2016-08-24T07:40:26.814Z,51.76
2016-08-24T07:41:26.819Z,50.62
2016-08-24T07:42:26.829Z,50.36
2016-08-24T07:43:26.831Z,50.65
2016-08-24T07:44:26.837Z,51.4
2016-08-24T07:45:26.845Z,51.69
2016-08-24T07:46:26.853Z,52.64
2016-08-24T07:47:26.875Z,52.73
2016-08-24T07:48:26.858Z,51.47
2016-08-24T07:49:26.865Z,50.14
2016-08-24T07:50:26.873Z,49.87
2016-08-24T07:51:26.880Z,48.15
2016-08-24T07:52:26.883Z,46.81
2016-08-24T07:53:27.598Z,45.09
2016-08-24T07:54:26.898Z,42.8
2016-08-24T07:55:26.903Z,41.38
2016-08-24T07:56:26.911Z,40.16
2016-08-24T07:57:26.915Z,37.55
2016-08-24T07:58:26.923Z,37.6
2016-08-24T07:59:26.939Z,36.54
2016-08-24T08:00:27.101Z,35.87
2016-08-24T08:01:26.944Z,34.91
2016-08-24T08:02:26.953Z,34.14
2016-08-24T08:03:26.966Z,33.18
2016-08-24T08:04:26.967Z,32.22
2016-08-24T08:05:26.992Z,31.44
2016-08-24T08:06:26.992Z,31.17
2016-08-24T08:07:26.997Z,30.5
2016-08-24T08:08:27.004Z,30.49
2016-08-24T08:09:27.011Z,30.8
2016-08-24T08:10:27.025Z,29.72
2016-08-24T08:11:27.031Z,29.24
2016-08-24T08:12:27.048Z,29.06
2016-08-24T08:13:27.061Z,29.25
2016-08-24T08:14:27.062Z,29.94
2016-08-24T08:15:27.065Z,30.12
2016-08-24T08:16:27.078Z,29.73
2016-08-24T08:17:27.098Z,29.53
2016-08-24T08:18:27.094Z,29.83
2016-08-24T08:19:27.112Z,29.52
2016-08-24T08:20:27.158Z,29.93
2016-08-24T08:21:27.162Z,29.73
2016-08-24T08:22:27.134Z,30.62
2016-08-24T08:23:27.156Z,30.9
2016-08-24T08:24:27.156Z,30.68
2016-08-24T08:25:27.165Z,30
2016-08-24T08:26:27.176Z,30.19
2016-08-24T08:27:27.185Z,30
2016-08-24T08:28:27.194Z,29.6
2016-08-24T08:29:27.210Z,29.22
2016-08-24T08:30:27.225Z,29.22
2016-08-24T08:31:27.232Z,28.74
2016-08-24T08:32:27.236Z,30.3
2016-08-24T08:33:27.245Z,29.73
2016-08-24T08:34:27.259Z,28.57
2016-08-24T08:35:27.272Z,28.36
2016-08-24T08:36:27.278Z,28.75
2016-08-24T08:37:27.292Z,29.05
2016-08-24T08:38:27.296Z,28.95
2016-08-24T08:39:27.304Z,29.33
2016-08-24T08:40:27.325Z,30.98
2016-08-24T08:41:27.329Z,32.23
2016-08-24T08:42:27.337Z,32.79
2016-08-24T08:43:27.356Z,33.65
2016-08-24T08:44:27.358Z,35.97
2016-08-24T08:45:27.371Z,35.06
2016-08-24T08:46:27.379Z,36.49
2016-08-24T08:47:27.391Z,38.01
2016-08-24T08:48:27.402Z,38.46
2016-08-24T08:49:27.413Z,39.12
2016-08-24T08:50:27.420Z,39.39
2016-08-24T08:51:27.425Z,40.17
2016-08-24T08:52:27.434Z,40.64
2016-08-24T08:53:27.450Z,41.1
2016-08-24T08:54:27.449Z,41.49
2016-08-24T08:55:27.457Z,41.69
2016-08-24T08:56:27.467Z,41.49
2016-08-24T08:57:27.475Z,41.49
2016-08-24T08:58:27.481Z,42.08
2016-08-24T08:59:27.506Z,41.69
2016-08-24T09:00:27.570Z,42.27
2016-08-24T09:01:27.572Z,41.98
2016-08-24T09:02:27.508Z,41.88
2016-08-24T09:03:27.516Z,41.78
2016-08-24T09:04:27.521Z,41.59
2016-08-24T09:05:27.537Z,42.18
2016-08-24T09:06:27.536Z,42.95
2016-08-24T09:07:27.548Z,41.78
2016-08-24T09:08:27.549Z,42.25
2016-08-24T09:09:27.561Z,41.98
2016-08-24T09:10:27.560Z,41.3
2016-08-24T09:11:27.571Z,41.2
2016-08-24T09:12:27.575Z,41.59
2016-08-24T09:13:27.577Z,41.98
2016-08-24T09:14:27.585Z,42.76
2016-08-24T09:15:27.598Z,43.05
2016-08-24T09:16:27.602Z,43.82
2016-08-24T09:17:27.613Z,42.76
2016-08-24T09:18:27.608Z,42.18
2016-08-24T09:19:27.620Z,44.21
2016-08-24T09:20:27.620Z,42.56
2016-08-24T09:21:27.629Z,42.95
2016-08-24T09:22:27.631Z,41.59
2016-08-24T09:23:27.650Z,41.78
2016-08-24T09:24:27.651Z,41.98
2016-08-24T09:25:27.652Z,41.98
2016-08-24T09:26:27.653Z,42.08
2016-08-24T09:27:27.659Z,41.69
2016-08-24T09:28:27.665Z,41.9
2016-08-24T09:29:27.670Z,42.29
2016-08-24T09:30:27.686Z,42.87
2016-08-24T09:31:27.683Z,42.58
2016-08-24T09:32:27.687Z,41.71
2016-08-24T09:33:27.696Z,41.8
2016-08-24T09:34:27.710Z,41.22
2016-08-24T09:35:27.712Z,40.73
2016-08-24T09:36:27.712Z,40.93
2016-08-24T09:37:27.724Z,41.32
2016-08-24T09:38:27.722Z,41.61
2016-08-24T09:39:27.740Z,40.25
2016-08-24T09:40:27.736Z,40.37
2016-08-24T09:41:27.747Z,40.08
2016-08-24T09:42:27.748Z,39.78
2016-08-24T09:43:28.468Z,40.08
2016-08-24T09:44:27.759Z,41.24
2016-08-24T09:45:27.762Z,40.17
2016-08-24T09:46:27.769Z,41.63
2016-08-24T09:47:27.792Z,40.37
2016-08-24T09:48:27.795Z,41.05
2016-08-24T09:49:27.787Z,40.08
2016-08-24T09:50:27.816Z,40.17
2016-08-24T09:51:27.797Z,40.17
2016-08-24T09:52:27.805Z,41.14
2016-08-24T09:53:27.807Z,40.56
2016-08-24T09:54:27.813Z,41.73
2016-08-24T09:55:27.826Z,40.85
2016-08-24T09:56:27.837Z,39.78
2016-08-24T09:57:27.831Z,40.95
2016-08-24T09:58:27.841Z,41.24
2016-08-24T09:59:28.552Z,42.6
2016-08-24T10:00:27.849Z,41.06
2016-08-24T10:01:27.857Z,40.19
2016-08-24T10:02:27.861Z,39.88
2016-08-24T10:03:27.873Z,40.27
2016-08-24T10:04:27.882Z,40.17
2016-08-24T10:05:27.879Z,40.08
2016-08-24T10:06:27.888Z,40.08
2016-08-24T10:07:27.890Z,40.17
2016-08-24T10:08:27.895Z,40.27
2016-08-24T10:09:27.901Z,40
2016-08-24T10:10:27.907Z,41.16
2016-08-24T10:11:27.912Z,39.03
2016-08-24T10:12:27.917Z,38.64
2016-08-24T10:13:27.926Z,38.83
2016-08-24T10:14:27.933Z,38.46
2016-08-24T10:15:27.943Z,38.56
2016-08-24T10:16:27.942Z,38.65
2016-08-24T10:17:27.946Z,37.39
2016-08-24T10:18:27.953Z,37.97
2016-08-24T10:19:27.965Z,37.19
2016-08-24T10:20:27.967Z,37.48
2016-08-24T10:21:27.971Z,37.48
2016-08-24T10:22:27.977Z,38.75
2016-08-24T10:23:27.985Z,39.9
2016-08-24T10:24:27.988Z,39.22
2016-08-24T10:25:27.996Z,38.54
2016-08-24T10:26:28.003Z,38.93
2016-08-24T10:27:28.005Z,38.05
2016-08-24T10:28:28.020Z,38.93
2016-08-24T10:29:28.022Z,38.44
2016-08-24T10:30:28.032Z,38.54
2016-08-24T10:31:28.040Z,38.26
2016-08-24T10:32:28.036Z,37.27
2016-08-24T10:33:28.045Z,39.04
2016-08-24T10:34:28.048Z,37.19
2016-08-24T10:35:28.070Z,37.29
2016-08-24T10:36:28.059Z,37.48
2016-08-24T10:37:28.066Z,37.48
2016-08-24T10:38:28.081Z,38.46
2016-08-24T10:39:28.085Z,37.68
2016-08-24T10:40:28.085Z,37.29
2016-08-24T10:41:28.098Z,37
2016-08-24T10:42:28.097Z,37.31
2016-08-24T10:43:28.102Z,37.02
2016-08-24T10:44:28.105Z,37.31
2016-08-24T10:45:28.114Z,36.92
2016-08-24T10:46:28.119Z,37.89
2016-08-24T10:47:28.123Z,37.6
2016-08-24T10:48:28.143Z,38.38
2016-08-24T10:49:28.143Z,39.26
2016-08-24T10:50:28.153Z,36.72
2016-08-24T10:51:28.159Z,37.99
2016-08-24T10:52:28.155Z,37.99
2016-08-24T10:53:28.171Z,37.31
2016-08-24T10:54:28.167Z,37.41
2016-08-24T10:55:28.174Z,37.41
2016-08-24T10:56:28.179Z,37.52
2016-08-24T10:57:28.185Z,37.33
2016-08-24T10:58:28.189Z,36.45
2016-08-24T10:59:28.196Z,35.77
2016-08-24T11:00:28.512Z,37.23
2016-08-24T11:01:28.226Z,36.55
2016-08-24T11:02:28.214Z,38.79
2016-08-24T11:03:28.224Z,38.79
2016-08-24T11:04:28.228Z,37.04
2016-08-24T11:05:28.232Z,36.55
2016-08-24T11:06:28.241Z,36.45
2016-08-24T11:07:28.255Z,36.55
2016-08-24T11:08:28.252Z,36.25
2016-08-24T11:09:28.257Z,36.06
2016-08-24T11:10:28.982Z,36.16
2016-08-24T11:11:28.281Z,36.35
2016-08-24T11:12:28.283Z,36.55
2016-08-24T11:13:28.294Z,36.84
2016-08-24T11:14:28.293Z,36.35
2016-08-24T11:15:28.298Z,35.69
2016-08-24T11:16:28.316Z,37.25
2016-08-24T11:17:28.311Z,35.98
2016-08-24T11:18:28.317Z,35.69
2016-08-24T11:19:28.343Z,37.63
2016-08-24T11:20:28.334Z,36.47
2016-08-24T11:21:28.345Z,36.57
2016-08-24T11:22:28.343Z,36.47
2016-08-24T11:23:28.354Z,35.69
2016-08-24T11:24:28.359Z,35
2016-08-24T11:25:28.364Z,35.2
2016-08-24T11:26:28.365Z,35.1
2016-08-24T11:27:28.374Z,35.1
2016-08-24T11:28:28.378Z,34.79
2016-08-24T11:29:28.385Z,35.28
2016-08-24T11:30:28.395Z,35.57
2016-08-24T11:31:28.399Z,36.16
2016-08-24T11:32:28.405Z,36.35
2016-08-24T11:33:28.409Z,36.35
2016-08-24T11:34:28.431Z,36.74
2016-08-24T11:35:28.429Z,37.04
2016-08-24T11:36:28.431Z,36.96
2016-08-24T11:37:28.439Z,37.05
2016-08-24T11:38:28.457Z,36.08
2016-08-24T11:39:28.449Z,35.77
2016-08-24T11:40:28.468Z,36.55
2016-08-24T11:41:28.462Z,37.62
2016-08-24T11:42:28.467Z,36.55
2016-08-24T11:43:28.470Z,37.62
2016-08-24T11:44:28.484Z,37.35
2016-08-24T11:45:28.501Z,36.84
2016-08-24T11:46:28.503Z,37.45
2016-08-24T11:47:28.495Z,37.73
2016-08-24T11:48:28.513Z,36.39
2016-08-24T11:49:28.519Z,36.19
2016-08-24T11:50:28.514Z,34.73
2016-08-24T11:51:28.523Z,35.22
2016-08-24T11:52:28.531Z,36.39
2016-08-24T11:53:28.535Z,35.9
2016-08-24T11:54:28.543Z,35.71
2016-08-24T11:55:28.548Z,34.73
2016-08-24T11:56:28.553Z,33.95
2016-08-24T11:57:28.572Z,33.85
2016-08-24T11:58:28.572Z,33.75
2016-08-24T11:59:28.577Z,34.05
2016-08-24T12:00:28.634Z,34.73
2016-08-24T12:01:28.585Z,34.53
2016-08-24T12:02:28.593Z,34.05
2016-08-24T12:03:28.598Z,34.14
2016-08-24T12:04:28.603Z,34.73
2016-08-24T12:05:28.619Z,36
2016-08-24T12:06:28.616Z,35.61
2016-08-24T12:07:28.637Z,36.39
2016-08-24T12:08:28.636Z,37.37
2016-08-24T12:09:28.639Z,35.12
2016-08-24T12:10:28.649Z,34.63
2016-08-24T12:11:28.649Z,34.92
2016-08-24T12:12:28.657Z,36.19
2016-08-24T12:13:28.666Z,34.92
2016-08-24T12:14:28.675Z,36.78
2016-08-24T12:15:28.676Z,37.17
2016-08-24T12:16:28.684Z,37.27
2016-08-24T12:17:28.689Z,35.22
2016-08-24T12:18:28.710Z,36.1
2016-08-24T12:19:28.702Z,36.68
2016-08-24T12:20:28.707Z,34.84
2016-08-24T12:21:28.715Z,33.87
2016-08-24T12:22:28.724Z,34.65
2016-08-24T12:23:28.727Z,34.06
2016-08-24T12:24:28.736Z,34.84
2016-08-24T12:25:28.747Z,34.26
2016-08-24T12:26:28.752Z,33.87
2016-08-24T12:27:28.755Z,33.67
2016-08-24T12:28:28.768Z,34.38
2016-08-24T12:29:28.769Z,35.63
2016-08-24T12:30:28.776Z,34.18
2016-08-24T12:31:28.781Z,34.08
2016-08-24T12:32:28.791Z,34.57
2016-08-24T12:33:28.795Z,32.91
2016-08-24T12:34:28.802Z,33.5
2016-08-24T12:35:28.818Z,33.3
2016-08-24T12:36:28.818Z,32.71
2016-08-24T12:37:28.823Z,32.32
2016-08-24T12:38:28.827Z,32.91
2016-08-24T12:39:29.552Z,33.59
2016-08-24T12:40:28.841Z,33.4
2016-08-24T12:41:28.848Z,33.38
2016-08-24T12:42:28.855Z,33.67
2016-08-24T12:43:28.873Z,34.94
2016-08-24T12:44:28.874Z,36.21
2016-08-24T12:45:28.874Z,36.11
2016-08-24T12:46:29.595Z,35.53
2016-08-24T12:47:28.890Z,35.04
2016-08-24T12:48:28.898Z,33.69
2016-08-24T12:49:28.902Z,33.11
2016-08-24T12:50:28.908Z,32.42
2016-08-24T12:51:28.915Z,31.84
2016-08-24T12:52:28.919Z,33.4
2016-08-24T12:53:28.938Z,32.91
2016-08-24T12:54:28.940Z,33.01
2016-08-24T12:55:28.945Z,33.5